Details for Ryanair at EBCI




Go Back


Latest METAR
Local Time

EBCI 261320Z 11006G17KT 060V190 CAVOK 27/13 Q1019 NOSIG

26/05/2018, 15:46:23

Description
Results
Ryanair Logo
Number of Pilots based at EBCI
0 Pilots Based here
Number of Ryanair Flights Departed from EBCI
4 Flights Departed
Number of Ryanair Flights Arrived at EBCI
4 Flights Arrived
Number of Ryanair Schedules Departing from EBCI
175 Schedules
Number of Ryanair Schedules Arriving at EBCI
176 Schedules
Number of Ryanair Schedules Departing from EBCI availible today
52 Schedules Today
Number of Ryanair Schedules Arriving at EBCI availible today
51 Schedules Today
Average Landing Rate at EBCI
-211 fpm
Ryanair Average Landing Rate at EBCI
-244 fpm
Total Fuel Purchased at EBCI by Ryanair
15,921.97 kgs / 35,101.58 lbs

Pilots Based at EBCI


Pilot ID
Pilot Name
Pilot Rank
No. of Flights
No. of Flying Hours
There are no pilots assigned to this hub!   Will you be the first?
Content